Pierreville, Canada
Current Conditions -  °F | °C
As of 6:06 PM on Monday 24 Nov 2014 (Local Time) from CYRQ Reporting Station
Thunderstorm Thunderstorm  
Wind Chill: 57°   Ceiling: 7700
Heat Index: 57°   Visibility: 9mi
Dew Point: 54°   Wind: 12mph
Humidity: 88%   Direction: 180°S
Pressure: 29.25"   Gusts: NA
Location:  46.07°N, 72.8°W
Report Text: CYRQ 242306Z AUTO 18010KT 9SM VCTS FEW060 BKN077 BKN100 OVC130 14/12 A2925 RMK LTNG DIST SW SLP906 DENSITY ALT 900FT
Loading
Personal Weather Stations






























Interactive Weather Map New forecast layout! Learn more

10-Day Weather Forecast

Advertisements
Track Severe Weather on mobile